Time;durP1;ratioP1;P1;durP2;ratioP2;P2;SDS_P1;SDS_P2;PMS_P1;PMS_P2;Temp;Humidity;BMP_temperature;BMP_pressure;BME280_temperature;BME280_humidity;BME280_pressure;Samples;Min_cycle;Max_cycle;Signal;HPM_P1;HPM_P2
2021/07/04 00:01:57;;;;;;;5.32;4.32;;;17.70;99.90;;;;;;5054280;28;20025;-63
2021/07/04 00:04:22;;;;;;;5.05;4.55;;;17.70;99.90;;;;;;5053907;28;20055;-63
2021/07/04 00:06:48;;;;;;;5.55;3.90;;;17.70;99.90;;;;;;5053168;28;20115;-62
2021/07/04 00:09:13;;;;;;;4.90;4.20;;;17.60;99.90;;;;;;5053777;28;20469;-62
2021/07/04 00:11:39;;;;;;;6.72;4.22;;;17.60;99.90;;;;;;5053915;28;20094;-63
2021/07/04 00:14:05;;;;;;;6.70;4.45;;;17.60;99.90;;;;;;5052654;28;20040;-63
2021/07/04 00:16:30;;;;;;;6.93;4.28;;;17.60;99.90;;;;;;5053901;28;20035;-63
2021/07/04 00:18:56;;;;;;;5.93;4.45;;;17.60;99.90;;;;;;5052755;28;20446;-62
2021/07/04 00:21:22;;;;;;;4.53;4.13;;;17.50;99.90;;;;;;5053647;28;20100;-63
2021/07/04 00:23:47;;;;;;;5.43;3.70;;;17.50;99.90;;;;;;5054712;28;20037;-62
2021/07/04 00:26:14;;;;;;;8.00;4.35;;;17.50;99.90;;;;;;5053300;28;20046;-62
2021/07/04 00:28:40;;;;;;;4.90;4.28;;;17.40;99.90;;;;;;5053704;28;20025;-62
2021/07/04 00:31:05;;;;;;;5.70;4.45;;;17.40;99.90;;;;;;5052740;28;20029;-62
2021/07/04 00:33:31;;;;;;;4.72;4.03;;;17.40;99.90;;;;;;5053390;28;20043;-62
2021/07/04 00:35:57;;;;;;;5.68;4.53;;;17.40;99.90;;;;;;5052610;28;20040;-62
2021/07/04 00:38:23;;;;;;;4.50;4.10;;;17.40;99.90;;;;;;5053195;28;20112;-63
2021/07/04 00:40:49;;;;;;;6.30;4.55;;;17.40;99.90;;;;;;5052490;28;20104;-63
2021/07/04 00:43:15;;;;;;;4.93;4.47;;;17.40;99.90;;;;;;5052979;28;20519;-63
2021/07/04 00:45:41;;;;;;;6.10;4.32;;;17.40;99.90;;;;;;5053313;28;20143;-62
2021/07/04 00:48:07;;;;;;;5.97;4.80;;;17.40;99.90;;;;;;5052468;28;20035;-62
2021/07/04 00:50:33;;;;;;;4.93;4.32;;;17.40;99.90;;;;;;5052953;28;20035;-63
2021/07/04 00:53:00;;;;;;;5.38;4.30;;;17.40;99.90;;;;;;5052274;28;20090;-62
2021/07/04 00:55:26;;;;;;;8.30;4.80;;;17.40;99.90;;;;;;5052514;28;20068;-62
2021/07/04 00:57:52;;;;;;;5.72;4.82;;;17.40;99.90;;;;;;5052212;28;20036;-63
2021/07/04 01:00:25;;;;;;;5.82;5.07;;;17.40;99.90;;;;;;5052713;28;20025;-62
2021/07/04 01:02:51;;;;;;;5.25;4.75;;;17.30;99.90;;;;;;5059665;28;20025;-62
2021/07/04 01:05:20;;;;;;;5.78;5.15;;;17.30;99.90;;;;;;5053354;28;20048;-62
2021/07/04 01:07:46;;;;;;;6.43;5.15;;;17.30;99.90;;;;;;5052188;28;20043;-63
2021/07/04 01:10:16;;;;;;;6.93;4.88;;;17.20;99.90;;;;;;5052780;28;20057;-62
2021/07/04 01:12:46;;;;;;;5.30;4.80;;;17.20;99.90;;;;;;5052868;28;20067;-62
2021/07/04 01:15:13;;;;;;;9.07;5.35;;;17.20;99.90;;;;;;5052385;28;20043;-62
2021/07/04 01:17:40;;;;;;;6.15;5.00;;;17.10;99.90;;;;;;5052627;28;20052;-62
2021/07/04 01:20:08;;;;;;;5.25;4.63;;;17.10;99.90;;;;;;5051790;28;20100;-63
2021/07/04 01:22:35;;;;;;;5.65;5.07;;;17.00;99.90;;;;;;5052850;28;20029;-62
2021/07/04 01:25:01;;;;;;;5.18;4.68;;;16.90;99.90;;;;;;5050789;28;20040;-62
2021/07/04 01:27:27;;;;;;;7.28;5.10;;;16.90;99.90;;;;;;5052610;28;20025;-62
2021/07/04 01:29:53;;;;;;;5.60;4.82;;;16.80;99.90;;;;;;5051936;28;20356;-62
2021/07/04 01:32:19;;;;;;;5.65;5.07;;;16.80;99.90;;;;;;5052228;28;20099;-63
2021/07/04 01:34:44;;;;;;;5.97;5.07;;;16.80;99.90;;;;;;5051948;28;20115;-64
2021/07/04 01:37:10;;;;;;;7.28;5.72;;;16.70;99.90;;;;;;5052042;28;20025;-62
2021/07/04 01:39:35;;;;;;;6.70;5.05;;;16.70;99.90;;;;;;5050640;28;20456;-62
2021/07/04 01:42:01;;;;;;;6.10;5.25;;;16.60;99.90;;;;;;5051482;28;20032;-62
2021/07/04 01:44:27;;;;;;;5.95;5.28;;;16.60;99.90;;;;;;5051096;28;20040;-62
2021/07/04 01:46:52;;;;;;;6.88;5.65;;;16.50;99.90;;;;;;5051355;28;20027;-63
2021/07/04 01:49:18;;;;;;;5.78;5.00;;;16.50;99.90;;;;;;5051975;28;20175;-62
2021/07/04 01:51:44;;;;;;;5.85;5.00;;;16.50;99.90;;;;;;5051914;28;20114;-63
2021/07/04 01:54:09;;;;;;;5.80;5.20;;;16.50;99.90;;;;;;5051052;28;20077;-62
2021/07/04 01:56:35;;;;;;;6.32;5.28;;;16.50;99.90;;;;;;5051675;28;20055;-63
2021/07/04 01:59:01;;;;;;;6.63;5.47;;;16.50;99.90;;;;;;5050899;28;20043;-63
2021/07/04 02:01:27;;;;;;;7.18;5.80;;;16.50;99.90;;;;;;5051786;28;20141;-63
2021/07/04 02:03:52;;;;;;;5.60;5.10;;;16.50;99.90;;;;;;5050666;28;20406;-63
2021/07/04 02:06:18;;;;;;;7.20;5.65;;;16.50;99.90;;;;;;5051926;28;20032;-62
2021/07/04 02:08:44;;;;;;;6.38;5.25;;;16.60;99.90;;;;;;5051436;28;20032;-62
2021/07/04 02:11:10;;;;;;;8.25;5.47;;;16.60;99.90;;;;;;5050750;28;20446;-62
2021/07/04 02:13:35;;;;;;;6.68;5.65;;;16.50;99.90;;;;;;5051343;28;20032;-62
2021/07/04 02:16:01;;;;;;;10.75;5.70;;;16.50;99.90;;;;;;5050942;28;20112;-63
2021/07/04 02:18:27;;;;;;;7.72;6.03;;;16.50;99.90;;;;;;5051563;28;20116;-63
2021/07/04 02:20:54;;;;;;;5.90;5.30;;;16.50;99.90;;;;;;5050550;28;20096;-63
2021/07/04 02:23:28;;;;;;;6.13;5.47;;;16.50;99.90;;;;;;5051410;28;20035;-62
2021/07/04 02:25:55;;;;;;;7.60;5.72;;;16.50;99.90;;;;;;5050249;28;20094;-63
2021/07/04 02:28:23;;;;;;;5.55;5.05;;;16.40;99.90;;;;;;5051148;28;20071;-63
2021/07/04 02:30:51;;;;;;;6.88;6.18;;;16.40;99.90;;;;;;5050743;28;20497;-64
2021/07/04 02:33:17;;;;;;;6.60;5.75;;;16.30;99.90;;;;;;5051067;28;20467;-62
2021/07/04 02:35:55;;;;;;;7.78;6.68;;;16.20;99.90;;;;;;5051473;28;20072;-62
2021/07/04 02:38:21;;;;;;;8.27;6.30;;;16.20;99.90;;;;;;5051656;28;20040;-63
2021/07/04 02:40:48;;;;;;;7.22;6.53;;;16.20;99.90;;;;;;5049632;28;20398;-63
2021/07/04 02:43:16;;;;;;;7.72;6.22;;;16.10;99.90;;;;;;5049399;28;20021;-62
2021/07/04 02:45:43;;;;;;;7.35;6.55;;;16.10;99.90;;;;;;5048157;28;20021;-63
2021/07/04 02:48:09;;;;;;;6.65;5.97;;;16.10;99.90;;;;;;5048756;28;20620;-62
2021/07/04 02:50:36;;;;;;;6.18;5.43;;;16.10;99.90;;;;;;5048524;28;20075;-63
2021/07/04 02:53:01;;;;;;;7.05;5.47;;;16.00;99.90;;;;;;5048957;28;20021;-63
2021/07/04 02:55:27;;;;;;;6.90;6.18;;;16.00;99.90;;;;;;5049368;28;20508;-62
2021/07/04 02:57:53;;;;;;;7.63;6.32;;;15.90;99.90;;;;;;5053252;28;20036;-63
2021/07/04 03:00:22;;;;;;;8.05;6.93;;;15.90;99.90;;;;;;5054203;28;20548;-63
2021/07/04 03:02:48;;;;;;;6.63;5.97;;;15.90;99.90;;;;;;5051290;28;20060;-63
2021/07/04 03:05:14;;;;;;;6.90;6.20;;;15.90;99.90;;;;;;5053456;28;20048;-62
2021/07/04 03:07:40;;;;;;;7.82;7.00;;;15.90;99.90;;;;;;5053936;28;20035;-62
2021/07/04 03:10:08;;;;;;;8.90;7.32;;;16.00;99.90;;;;;;5052933;28;20378;-62
2021/07/04 03:12:34;;;;;;;7.97;7.15;;;16.00;99.90;;;;;;5053677;28;20025;-63
2021/07/04 03:14:59;;;;;;;11.55;7.85;;;16.00;99.90;;;;;;5052944;28;20036;-62
2021/07/04 03:17:25;;;;;;;10.45;7.00;;;16.10;99.90;;;;;;5053605;28;20032;-63
2021/07/04 03:19:51;;;;;;;9.45;6.95;;;16.10;99.90;;;;;;5052989;28;20017;-64
2021/07/04 03:22:17;;;;;;;7.60;6.75;;;16.10;99.90;;;;;;5053488;28;20024;-63
2021/07/04 03:24:43;;;;;;;9.02;7.00;;;16.10;99.90;;;;;;5053597;28;20036;-62
2021/07/04 03:27:09;;;;;;;7.15;5.97;;;16.10;99.90;;;;;;5052696;28;20206;-63
2021/07/04 03:29:35;;;;;;;8.05;6.93;;;16.10;99.90;;;;;;5053188;28;20108;-62
2021/07/04 03:32:03;;;;;;;7.60;6.35;;;16.10;99.90;;;;;;5052787;28;20028;-62
2021/07/04 03:34:29;;;;;;;7.13;6.43;;;16.10;99.90;;;;;;5054542;28;20474;-63
2021/07/04 03:36:55;;;;;;;6.97;6.25;;;16.10;99.90;;;;;;5053761;28;20036;-63
2021/07/04 03:39:21;;;;;;;7.95;6.45;;;16.10;99.90;;;;;;5054729;28;20029;-62
2021/07/04 03:41:47;;;;;;;7.90;5.53;;;16.20;99.90;;;;;;5054300;28;20108;-63
2021/07/04 03:44:12;;;;;;;8.60;6.43;;;16.20;99.90;;;;;;5053936;28;20466;-62
2021/07/04 03:46:38;;;;;;;8.18;6.25;;;16.20;99.90;;;;;;5053903;28;20021;-63
2021/07/04 03:49:04;;;;;;;7.03;6.32;;;16.30;99.90;;;;;;5053765;28;20108;-63
2021/07/04 03:51:29;;;;;;;5.90;5.30;;;16.30;99.90;;;;;;5054052;28;20037;-62
2021/07/04 03:53:55;;;;;;;6.70;5.47;;;16.30;99.90;;;;;;5053439;28;20045;-63
2021/07/04 03:56:21;;;;;;;7.47;5.70;;;16.40;99.90;;;;;;5054353;28;20104;-62
2021/07/04 03:58:48;;;;;;;8.57;6.22;;;16.40;99.90;;;;;;5054238;28;20032;-63
2021/07/04 04:01:20;;;;;;;7.10;6.20;;;16.50;99.90;;;;;;5053217;28;20108;-63
2021/07/04 04:03:50;;;;;;;6.47;5.88;;;16.50;99.90;;;;;;5054227;28;20102;-62
2021/07/04 04:06:16;;;;;;;6.75;6.00;;;16.60;99.90;;;;;;5059781;28;20462;-62
2021/07/04 04:08:44;;;;;;;7.10;6.15;;;16.70;99.90;;;;;;5053330;28;20032;-63
2021/07/04 04:11:11;;;;;;;8.65;5.80;;;16.80;99.90;;;;;;5053634;28;20115;-63
2021/07/04 04:13:37;;;;;;;7.45;5.78;;;16.90;99.90;;;;;;5053439;28;20063;-63
2021/07/04 04:16:03;;;;;;;5.38;4.88;;;16.90;99.90;;;;;;5052824;28;20028;-63
2021/07/04 04:18:29;;;;;;;5.97;5.32;;;17.00;99.90;;;;;;5053390;28;20394;-63
2021/07/04 04:20:56;;;;;;;6.13;5.25;;;17.10;99.90;;;;;;5052584;28;20067;-63
2021/07/04 04:23:23;;;;;;;6.55;5.70;;;17.20;99.90;;;;;;5053882;28;20029;-63
2021/07/04 04:25:49;;;;;;;5.40;4.90;;;17.30;99.90;;;;;;5053726;28;20025;-63
2021/07/04 04:28:15;;;;;;;8.07;5.20;;;17.40;99.90;;;;;;5052571;28;20134;-63
2021/07/04 04:30:40;;;;;;;7.03;5.90;;;17.50;99.90;;;;;;5053592;28;20478;-62
2021/07/04 04:33:06;;;;;;;6.10;4.93;;;17.60;99.90;;;;;;5052907;28;20382;-63
2021/07/04 04:35:32;;;;;;;6.75;5.10;;;17.70;99.90;;;;;;5053750;28;20029;-63
2021/07/04 04:37:57;;;;;;;5.38;4.78;;;17.80;99.90;;;;;;5052412;28;20050;-63
2021/07/04 04:40:23;;;;;;;5.50;4.93;;;17.80;99.90;;;;;;5053535;28;20035;-63
2021/07/04 04:42:49;;;;;;;7.38;5.25;;;17.80;99.90;;;;;;5052781;28;20108;-62
2021/07/04 04:45:16;;;;;;;11.88;5.05;;;17.90;99.90;;;;;;5052333;28;20041;-62
2021/07/04 04:47:42;;;;;;;6.72;5.72;;;17.90;99.90;;;;;;5052951;28;20025;-63
2021/07/04 04:50:09;;;;;;;5.95;4.93;;;17.90;99.90;;;;;;5052438;28;20529;-62
2021/07/04 04:52:36;;;;;;;5.55;5.00;;;17.90;99.90;;;;;;5052007;28;20068;-64
2021/07/04 04:55:07;;;;;;;5.60;4.47;;;17.90;99.90;;;;;;5043921;28;20079;-63
2021/07/04 04:57:34;;;;;;;5.30;4.55;;;17.80;99.90;;;;;;5053222;28;20153;-63
2021/07/04 05:00:00;;;;;;;7.55;4.78;;;17.80;99.90;;;;;;5052212;28;20032;-63
2021/07/04 05:02:25;;;;;;;6.05;4.60;;;17.90;99.90;;;;;;5052545;28;20036;-62
2021/07/04 05:04:51;;;;;;;6.25;5.75;;;17.90;99.90;;;;;;5052714;28;20045;-64
2021/07/04 05:07:18;;;;;;;5.63;4.93;;;17.90;99.90;;;;;;5052457;28;20117;-63
2021/07/04 05:09:43;;;;;;;5.28;4.75;;;17.90;99.90;;;;;;5052826;28;20471;-63
2021/07/04 05:12:09;;;;;;;5.43;4.65;;;17.90;99.90;;;;;;5050616;28;20021;-63
2021/07/04 05:14:34;;;;;;;6.63;5.15;;;17.90;99.90;;;;;;5052294;28;20064;-62
2021/07/04 05:17:01;;;;;;;6.47;5.30;;;18.00;99.90;;;;;;5051467;28;20029;-63
2021/07/04 05:19:26;;;;;;;5.78;5.03;;;18.00;99.90;;;;;;5051481;28;20040;-63
2021/07/04 05:21:52;;;;;;;6.38;5.50;;;18.00;99.90;;;;;;5052117;28;20017;-64
2021/07/04 05:24:18;;;;;;;6.00;5.35;;;18.00;99.90;;;;;;5051847;28;20036;-63
2021/07/04 05:26:43;;;;;;;6.13;5.40;;;18.00;99.90;;;;;;5052244;28;20067;-64
2021/07/04 05:29:09;;;;;;;6.70;5.13;;;18.00;99.90;;;;;;5051495;28;20364;-63
2021/07/04 05:31:35;;;;;;;11.20;5.53;;;18.00;99.90;;;;;;5052634;28;20036;-63
2021/07/04 05:34:01;;;;;;;7.60;5.28;;;18.10;99.90;;;;;;5051316;28;20108;-63
2021/07/04 05:36:27;;;;;;;5.40;4.90;;;18.20;99.90;;;;;;5052362;28;20151;-62
2021/07/04 05:38:53;;;;;;;5.72;5.05;;;18.10;99.90;;;;;;5051957;28;20052;-64
2021/07/04 05:41:19;;;;;;;7.65;4.88;;;18.20;99.90;;;;;;5051734;28;20025;-63
2021/07/04 05:43:47;;;;;;;6.18;5.57;;;18.20;99.90;;;;;;5052588;28;20051;-63
2021/07/04 05:46:12;;;;;;;8.30;4.85;;;18.30;99.90;;;;;;5051005;28;20051;-63
2021/07/04 05:48:41;;;;;;;5.20;4.70;;;18.40;99.90;;;;;;5052244;28;20037;-63
2021/07/04 05:51:07;;;;;;;6.45;5.10;;;18.60;99.90;;;;;;5050895;28;20025;-63
2021/07/04 05:53:33;;;;;;;6.15;4.90;;;18.70;99.90;;;;;;5051867;28;20025;-63
2021/07/04 05:55:58;;;;;;;5.57;4.55;;;18.90;99.90;;;;;;5050783;28;20056;-63
2021/07/04 05:58:24;;;;;;;7.22;5.13;;;19.00;99.90;;;;;;5051827;28;20044;-63
2021/07/04 06:00:50;;;;;;;4.63;4.22;;;19.20;99.90;;;;;;5051571;28;20024;-63
2021/07/04 06:03:16;;;;;;;4.95;4.55;;;19.30;99.90;;;;;;5050657;28;20036;-63
2021/07/04 06:05:42;;;;;;;5.10;4.60;;;19.40;99.90;;;;;;5052057;28;20485;-63
2021/07/04 06:08:08;;;;;;;5.40;4.78;;;19.50;99.90;;;;;;5051136;28;20033;-63
2021/07/04 06:10:34;;;;;;;5.53;4.78;;;19.60;99.90;;;;;;5051334;28;20065;-63
2021/07/04 06:13:01;;;;;;;5.45;4.60;;;19.70;99.90;;;;;;5051248;28;20082;-63
2021/07/04 06:15:27;;;;;;;4.45;4.05;;;19.70;99.90;;;;;;5051270;28;20047;-62
2021/07/04 06:17:53;;;;;;;4.43;4.03;;;19.70;99.90;;;;;;5051508;28;20025;-64
2021/07/04 06:20:20;;;;;;;5.15;4.72;;;19.70;99.90;;;;;;5050977;28;20032;-63
2021/07/04 06:22:47;;;;;;;5.47;3.88;;;19.80;99.90;;;;;;5051328;28;20027;-63
2021/07/04 06:25:14;;;;;;;5.22;4.70;;;19.80;99.90;;;;;;5050682;28;20029;-63
2021/07/04 06:27:41;;;;;;;5.63;5.00;;;19.80;99.90;;;;;;5051579;28;20099;-63
2021/07/04 06:30:11;;;;;;;6.00;4.50;;;19.90;99.90;;;;;;5050216;28;20025;-63
2021/07/04 06:32:38;;;;;;;4.25;3.85;;;20.00;99.90;;;;;;5050911;28;20029;-63
2021/07/04 06:35:06;;;;;;;6.78;4.45;;;20.10;99.90;;;;;;5050645;28;20033;-63
2021/07/04 06:37:31;;;;;;;6.63;4.32;;;20.20;99.90;;;;;;5051557;28;20466;-64
2021/07/04 06:39:57;;;;;;;5.25;4.20;;;20.30;99.90;;;;;;5050402;28;20040;-64
2021/07/04 06:42:23;;;;;;;5.70;5.20;;;20.40;99.90;;;;;;5051256;28;20032;-63
2021/07/04 06:44:48;;;;;;;5.13;4.63;;;20.50;99.90;;;;;;5050754;28;20041;-63
2021/07/04 06:47:14;;;;;;;6.05;5.00;;;20.50;99.90;;;;;;5050122;28;20052;-63
2021/07/04 06:49:40;;;;;;;5.90;5.30;;;20.50;99.90;;;;;;5051146;28;20020;-63
2021/07/04 06:52:05;;;;;;;6.47;4.57;;;20.60;99.90;;;;;;5050310;28;20033;-63
2021/07/04 06:54:31;;;;;;;4.60;3.97;;;20.80;99.90;;;;;;5051125;28;20052;-63
2021/07/04 06:57:25;;;;;;;5.20;4.70;;;20.80;99.90;;;;;;5050576;28;20037;-64
2021/07/04 06:59:42;;;;;;;6.05;5.07;;;20.90;99.90;;;;;;5050649;28;20029;-63
2021/07/04 07:02:08;;;;;;;6.00;4.07;;;21.00;99.90;;;;;;5050223;28;20356;-64
2021/07/04 07:04:33;;;;;;;5.57;4.28;;;21.00;99.70;;;;;;5048326;28;20044;-63
2021/07/04 07:06:59;;;;;;;4.55;4.03;;;21.10;99.60;;;;;;5050274;28;20053;-63
2021/07/04 07:09:25;;;;;;;5.40;4.63;;;21.20;98.70;;;;;;5048997;28;20035;-63
2021/07/04 07:11:50;;;;;;;4.53;4.13;;;21.30;97.70;;;;;;5051312;28;20040;-63
2021/07/04 07:14:16;;;;;;;6.68;4.68;;;21.40;97.30;;;;;;5050806;28;20104;-63
2021/07/04 07:16:41;;;;;;;4.88;4.30;;;21.60;97.30;;;;;;5050720;28;20033;-63
2021/07/04 07:19:07;;;;;;;4.65;4.18;;;21.70;97.20;;;;;;5050410;28;20386;-63
2021/07/04 07:21:33;;;;;;;6.00;3.80;;;22.00;96.30;;;;;;5050400;28;20029;-63
2021/07/04 07:23:59;;;;;;;4.63;3.97;;;22.40;94.80;;;;;;5049829;28;20033;-64
2021/07/04 07:26:25;;;;;;;4.38;3.97;;;22.70;93.40;;;;;;5049004;28;20040;-63
2021/07/04 07:28:51;;;;;;;5.20;3.95;;;23.00;90.70;;;;;;5044437;28;20446;-65
2021/07/04 07:31:16;;;;;;;4.53;4.13;;;23.20;90.00;;;;;;5048868;28;20025;-65
2021/07/04 07:33:42;;;;;;;5.47;4.15;;;23.40;90.30;;;;;;5049599;28;20073;-65
2021/07/04 07:36:08;;;;;;;4.47;4.07;;;23.60;90.80;;;;;;5049094;28;20032;-65
2021/07/04 07:38:34;;;;;;;6.40;4.78;;;23.60;89.60;;;;;;5050141;28;20061;-65
2021/07/04 07:41:00;;;;;;;6.78;4.57;;;23.50;89.40;;;;;;5048832;28;20104;-66
2021/07/04 07:43:25;;;;;;;4.78;4.28;;;23.50;88.20;;;;;;5051452;28;20067;-66
2021/07/04 07:45:51;;;;;;;6.20;4.68;;;23.40;89.10;;;;;;5054308;28;20078;-83
2021/07/04 07:48:17;;;;;;;4.43;4.03;;;23.30;89.00;;;;;;5052759;28;20053;-80
2021/07/04 07:50:42;;;;;;;5.75;4.00;;;23.10;89.50;;;;;;5053336;28;20452;-79
2021/07/04 07:53:08;;;;;;;5.20;4.65;;;23.00;90.40;;;;;;5052518;28;20021;-77
2021/07/04 07:55:34;;;;;;;5.03;4.50;;;22.90;90.40;;;;;;5052303;28;20478;-77
2021/07/04 07:58:00;;;;;;;6.00;4.50;;;22.70;90.90;;;;;;5052671;28;20033;-78
2021/07/04 08:00:25;;;;;;;4.65;4.20;;;22.80;90.50;;;;;;5053675;28;20028;-76
2021/07/04 08:02:51;;;;;;;6.20;4.70;;;22.90;90.50;;;;;;5052638;28;20466;-77
2021/07/04 08:05:17;;;;;;;5.32;4.70;;;23.00;90.90;;;;;;5051174;28;20532;-78
2021/07/04 08:07:42;;;;;;;4.70;4.25;;;23.10;90.00;;;;;;5052578;28;20041;-77
2021/07/04 08:10:09;;;;;;;6.72;4.07;;;23.10;89.30;;;;;;5049463;28;20064;-83
2021/07/04 08:12:36;;;;;;;5.22;4.45;;;23.00;90.30;;;;;;5052546;28;20035;-79
2021/07/04 08:15:04;;;;;;;5.28;4.68;;;23.00;88.90;;;;;;5050289;28;20060;-76
2021/07/04 08:17:29;;;;;;;5.28;4.78;;;22.90;89.20;;;;;;5049036;28;20078;-78
2021/07/04 08:19:55;;;;;;;10.10;5.30;;;22.70;90.40;;;;;;5050700;28;20425;-81
2021/07/04 08:22:21;;;;;;;6.57;4.70;;;22.60;90.30;;;;;;5050345;28;20377;-78
2021/07/04 08:24:46;;;;;;;6.07;4.90;;;22.40;90.70;;;;;;5051263;28;20080;-76
2021/07/04 08:27:12;;;;;;;6.35;4.57;;;22.30;91.10;;;;;;5050493;28;20670;-78
2021/07/04 08:29:38;;;;;;;5.25;4.75;;;22.30;91.70;;;;;;5052663;28;20370;-79
2021/07/04 08:32:04;;;;;;;6.13;5.53;;;22.20;91.40;;;;;;5050049;28;20025;-79
2021/07/04 08:34:29;;;;;;;7.55;5.55;;;22.20;91.10;;;;;;5052664;28;20540;-82
2021/07/04 08:36:55;;;;;;;5.60;5.10;;;22.20;91.20;;;;;;5052128;28;20025;-81
2021/07/04 08:39:21;;;;;;;7.68;5.53;;;22.10;91.40;;;;;;5068793;28;20154;-80
2021/07/04 08:41:46;;;;;;;5.78;4.60;;;22.10;91.90;;;;;;5052781;28;20040;-80
2021/07/04 08:44:12;;;;;;;6.53;5.22;;;22.20;92.10;;;;;;5069052;28;20114;-74
2021/07/04 08:46:42;;;;;;;5.70;5.20;;;22.40;91.80;;;;;;5069377;28;20024;-74
2021/07/04 08:49:08;;;;;;;;;;;22.60;90.70;;;;;;5069697;28;20508;-81
2021/07/04 08:51:34;;;;;;;5.80;5.18;;;22.80;90.20;;;;;;5053288;28;20315;-78
2021/07/04 08:54:00;;;;;;;5.10;4.60;;;22.90;88.90;;;;;;5068431;28;20129;-82
2021/07/04 08:56:26;;;;;;;13.20;4.95;;;23.00;87.50;;;;;;5069177;28;20115;-85
2021/07/04 08:58:51;;;;;;;4.95;4.45;;;23.30;86.50;;;;;;5073183;28;20028;-80
2021/07/04 09:01:25;;;;;;;8.52;5.22;;;23.70;85.40;;;;;;5078272;28;20017;-78
2021/07/04 09:03:53;;;;;;;8.65;4.00;;;24.00;83.30;;;;;;5070085;28;20146;-78
2021/07/04 09:06:42;;;;;;;9.57;4.43;;;24.20;81.50;;;;;;5068531;28;20028;-78
2021/07/04 09:09:17;;;;;;;6.50;4.22;;;24.30;79.10;;;;;;5067925;28;20031;-78
2021/07/04 09:11:59;;;;;;;5.10;3.72;;;24.30;78.00;;;;;;5050443;28;20120;-82
2021/07/04 09:14:36;;;;;;;4.22;3.83;;;24.10;78.00;;;;;;5050858;28;20060;-81
2021/07/04 09:17:10;;;;;;;4.05;3.75;;;24.10;76.70;;;;;;5050618;28;20033;-80
2021/07/04 09:19:37;;;;;;;3.85;3.47;;;24.20;77.20;;;;;;5050958;28;20025;-81
2021/07/04 09:22:06;;;;;;;3.88;3.50;;;24.30;76.70;;;;;;5051803;28;20059;-80
2021/07/04 09:24:34;;;;;;;3.95;3.65;;;24.40;75.10;;;;;;5053336;28;20033;-80
2021/07/04 09:27:02;;;;;;;3.67;3.38;;;24.60;75.20;;;;;;5052661;28;20033;-80
2021/07/04 09:29:53;;;;;;;3.80;3.40;;;24.60;72.70;;;;;;5051380;28;20029;-82
2021/07/04 09:32:26;;;;;;;3.83;3.38;;;24.60;70.60;;;;;;5050262;28;20044;-81
2021/07/04 09:35:06;;;;;;;3.15;2.88;;;24.70;71.90;;;;;;5054060;28;20120;-81
2021/07/04 09:37:41;;;;;;;4.07;3.67;;;24.60;71.40;;;;;;5056273;28;20370;-81
2021/07/04 09:40:27;;;;;;;3.25;2.97;;;24.70;71.30;;;;;;5052545;28;20116;-82
2021/07/04 09:43:07;;;;;;;3.65;2.97;;;24.60;72.10;;;;;;5051781;28;20037;-82
2021/07/04 09:45:52;;;;;;;3.92;2.75;;;24.70;71.00;;;;;;5051112;28;20166;-82
2021/07/04 09:48:21;;;;;;;3.55;2.78;;;24.80;69.10;;;;;;5052356;28;20096;-82
2021/07/04 09:50:50;;;;;;;5.53;2.97;;;24.70;69.70;;;;;;5050724;28;20115;-82
2021/07/04 09:53:16;;;;;;;4.40;3.80;;;24.70;69.80;;;;;;5054030;28;20463;-82
2021/07/04 09:55:42;;;;;;;3.60;3.30;;;24.80;70.30;;;;;;5059872;28;20376;-82
2021/07/04 09:58:12;;;;;;;3.97;3.58;;;24.90;69.20;;;;;;5059576;28;20123;-82
2021/07/04 10:00:41;;;;;;;3.53;3.20;;;25.10;68.60;;;;;;5053581;28;20025;-81
2021/07/04 10:03:21;;;;;;;3.55;3.25;;;25.20;68.90;;;;;;5051179;28;20120;-81
2021/07/04 10:05:55;;;;;;;3.80;3.45;;;25.60;67.90;;;;;;5051197;28;20424;-82
2021/07/04 10:08:22;;;;;;;3.78;2.97;;;26.10;67.00;;;;;;5051127;28;20079;-81
2021/07/04 10:10:50;;;;;;;5.88;3.03;;;26.40;65.80;;;;;;5050393;28;20105;-80
2021/07/04 10:13:16;;;;;;;3.38;3.08;;;26.60;64.80;;;;;;5052077;28;20029;-80
2021/07/04 10:15:42;;;;;;;3.20;3.00;;;26.70;64.10;;;;;;5052464;28;20367;-80
2021/07/04 10:18:09;;;;;;;3.70;3.40;;;26.70;63.60;;;;;;5050577;28;20407;-80
2021/07/04 10:20:37;;;;;;;3.33;3.03;;;26.90;62.90;;;;;;5051963;28;20032;-81
2021/07/04 10:23:07;;;;;;;3.00;2.80;;;26.90;62.40;;;;;;5051681;28;20035;-80
2021/07/04 10:25:34;;;;;;;3.42;3.08;;;26.90;62.00;;;;;;5052669;28;20033;-81
2021/07/04 10:28:01;;;;;;;2.90;2.70;;;26.90;61.60;;;;;;5050868;28;20071;-78
2021/07/04 10:30:27;;;;;;;2.90;2.65;;;26.80;61.50;;;;;;5051151;28;20347;-80
2021/07/04 10:33:16;;;;;;;2.95;2.65;;;26.80;61.90;;;;;;5050423;28;20028;-81
2021/07/04 10:36:06;;;;;;;3.15;2.60;;;26.90;61.80;;;;;;5052268;28;20028;-83
2021/07/04 10:38:54;;;;;;;3.40;3.10;;;26.80;60.90;;;;;;5044962;28;20048;-84
2021/07/04 10:41:29;;;;;;;2.95;2.75;;;26.60;61.60;;;;;;5050480;28;20025;-82
2021/07/04 10:44:05;;;;;;;2.85;2.63;;;26.40;62.10;;;;;;5051002;28;20041;-82
2021/07/04 10:46:44;;;;;;;3.63;2.83;;;26.40;62.20;;;;;;5052203;28;20040;-83
2021/07/04 10:49:11;;;;;;;4.20;2.88;;;26.40;62.30;;;;;;5050459;28;20021;-84
2021/07/04 10:51:59;;;;;;;4.05;2.75;;;26.40;61.80;;;;;;5067666;28;20033;-81
2021/07/04 10:54:50;;;;;;;3.45;3.15;;;26.30;61.20;;;;;;5044101;28;20053;-82
2021/07/04 10:57:20;;;;;;;5.00;3.40;;;26.10;61.90;;;;;;5049745;28;20048;-83
2021/07/04 11:00:13;;;;;;;3.08;2.88;;;25.90;62.30;;;;;;5050205;28;20478;-81
2021/07/04 11:02:54;;;;;;;2.78;2.58;;;25.70;62.80;;;;;;5049706;28;20039;-82
2021/07/04 11:05:35;;;;;;;4.35;3.10;;;25.40;63.80;;;;;;5049707;28;20064;-82
2021/07/04 11:08:12;;;;;;;3.20;2.90;;;25.30;63.70;;;;;;5050392;28;20030;-78
2021/07/04 11:10:55;;;;;;;2.88;2.60;;;25.20;64.20;;;;;;5049432;28;20029;-82
2021/07/04 11:13:21;;;;;;;3.20;2.90;;;25.10;64.60;;;;;;5049997;28;20171;-82
2021/07/04 11:16:03;;;;;;;3.08;2.88;;;25.10;64.80;;;;;;5050825;28;20098;-81
2021/07/04 11:18:38;;;;;;;3.33;3.08;;;25.10;64.80;;;;;;5052175;28;20028;-82
2021/07/04 11:21:04;;;;;;;2.85;2.65;;;25.20;65.30;;;;;;5054000;28;20536;-79
2021/07/04 11:23:30;;;;;;;2.70;2.50;;;25.30;65.20;;;;;;5054625;28;20123;-81
2021/07/04 11:26:07;;;;;;;3.13;2.88;;;25.30;65.00;;;;;;5054609;28;20059;-82
2021/07/04 11:28:38;;;;;;;3.45;3.15;;;25.50;65.20;;;;;;5053242;28;20029;-82
2021/07/04 11:31:16;;;;;;;3.72;2.55;;;25.70;65.70;;;;;;5052068;28;20032;-78
2021/07/04 11:33:45;;;;;;;3.50;3.20;;;25.90;63.60;;;;;;5054576;28;20343;-81
2021/07/04 11:36:16;;;;;;;2.90;2.70;;;26.10;62.60;;;;;;5054683;28;20155;-80
2021/07/04 11:38:53;;;;;;;2.85;2.65;;;26.30;62.10;;;;;;5053236;28;20101;-83
2021/07/04 11:41:46;;;;;;;3.00;2.70;;;26.30;61.70;;;;;;5053711;28;20518;-83
2021/07/04 11:44:15;;;;;;;3.20;2.90;;;26.40;61.20;;;;;;5053652;28;20060;-83
2021/07/04 11:46:49;;;;;;;3.13;2.83;;;26.60;61.70;;;;;;5054643;28;20102;-83
2021/07/04 11:49:23;;;;;;;4.03;3.10;;;26.60;61.70;;;;;;5049552;28;20074;-83
2021/07/04 11:51:51;;;;;;;2.88;2.55;;;26.60;61.70;;;;;;5054685;28;20103;-82
2021/07/04 11:54:25;;;;;;;3.30;3.00;;;26.50;61.70;;;;;;5053229;28;20359;-83
2021/07/04 11:56:54;;;;;;;3.03;2.70;;;26.60;61.50;;;;;;5053261;28;20458;-82
2021/07/04 11:59:21;;;;;;;3.50;3.20;;;26.60;61.20;;;;;;5056486;28;20025;-82
2021/07/04 12:01:56;;;;;;;3.28;2.97;;;26.40;61.30;;;;;;5060696;28;20024;-81
2021/07/04 12:04:44;;;;;;;2.90;2.70;;;26.30;61.10;;;;;;5059578;28;20052;-81
2021/07/04 12:07:15;;;;;;;3.78;3.40;;;26.10;61.80;;;;;;5054307;28;20033;-81
2021/07/04 12:09:41;;;;;;;4.57;2.90;;;26.00;62.00;;;;;;5054227;28;20466;-80
2021/07/04 12:12:28;;;;;;;3.80;3.33;;;26.00;62.70;;;;;;5051867;28;20053;-81
2021/07/04 12:15:05;;;;;;;5.90;4.32;;;25.90;63.10;;;;;;5054067;28;20116;-82
2021/07/04 12:17:42;;;;;;;4.45;3.90;;;25.80;63.50;;;;;;5053727;28;20025;-82
2021/07/04 12:20:11;;;;;;;4.00;3.08;;;25.60;64.60;;;;;;5053127;28;20029;-81
2021/07/04 12:22:52;;;;;;;3.53;3.22;;;25.60;64.20;;;;;;5053953;28;20486;-82
2021/07/04 12:25:31;;;;;;;3.88;3.58;;;25.50;62.80;;;;;;5052429;28;20402;-84
2021/07/04 12:27:59;;;;;;;3.95;3.55;;;25.50;64.30;;;;;;5054039;28;20055;-84
2021/07/04 12:30:27;;;;;;;4.05;3.53;;;25.60;64.50;;;;;;5051801;28;20045;-82
2021/07/04 12:33:08;;;;;;;3.50;3.25;;;25.70;64.70;;;;;;5054243;28;20112;-82
2021/07/04 12:35:50;;;;;;;4.03;3.63;;;25.90;65.00;;;;;;5054877;28;20033;-80
2021/07/04 12:38:15;;;;;;;4.20;3.80;;;26.10;64.90;;;;;;5052460;28;20029;-76
2021/07/04 12:40:53;;;;;;;5.47;3.95;;;26.30;63.40;;;;;;5053615;28;20024;-77
2021/07/04 12:43:28;;;;;;;4.90;3.63;;;26.70;63.50;;;;;;5052487;28;20036;-76
2021/07/04 12:45:57;;;;;;;3.95;3.65;;;26.90;62.00;;;;;;5054893;28;20052;-76
2021/07/04 12:48:25;;;;;;;4.00;3.33;;;27.10;60.80;;;;;;5051560;28;20037;-79
2021/07/04 12:51:03;;;;;;;5.15;3.38;;;27.20;60.50;;;;;;5052164;28;20155;-79
2021/07/04 12:53:42;;;;;;;3.92;3.10;;;27.40;60.80;;;;;;5052315;28;20067;-79
2021/07/04 12:56:28;;;;;;;3.60;3.30;;;27.70;59.00;;;;;;5052753;28;20472;-79